Tiempo atmosférico en la estación meteorológica de Chinchilla, Albacete (880 m.)



Fecha
DESCASC
Temp. máxima en grados centígrados (hora)
DESCASC
Temp. mínima en grados centígrados (hora)
DESCASC
Temp. media en grados centígrados
DESCASC
Racha de viento máxima en m/sg (hora)
DESCASC
Velocidad máxima media en intervalos de 10 minutos(hora)
DESCASC
Precipitaciones diarias en mm
DESCASC
Precipitaciones de 00:00 a 06:00 en mm
DESCASC
Precipitaciones de 06:00 a 12:00 en mm
DESCASC
Precipitaciones de 12:00 a 18:00 en mm
DESCASC
Precipitaciones de 18:00 a 24:00 en mm
DESCASC
29-03-2020 15 (18:30) 1.7 (08:20) 8.4 8.61 (17:30) 4.72 (17:30) 0 0 0 0 0
28-03-2020 10.8 (15:50) 0 (06:00) 5.4 5.83 (00:50) 3.61 (00:50) 0.1 0.1 0 0 0
27-03-2020 2.6 (00:00) -0.7 (09:00) 0.9 9.17 (10:10) 6.39 (06:50) 26.9 0 8.4 13.6 4.9
26-03-2020 10.6 (17:40) 2 (00:00) 6.3 13.61 (16:10) 8.33 (13:40) 0.1 0.1 0 0 0
25-03-2020 11.1 (16:10) 1.6 (00:00) 6.4 13.61 (17:40) 5.83 (17:50) 2.7 0.1 1.4 0 1.2
24-03-2020 8.2 (13:30) 3.6 (00:00) 5.9 13.33 (13:20) 7.78 (10:00) 10.8 4.3 6.5 0 0
23-03-2020 12.2 (15:50) 4.9 (00:00) 8.5 13.33 (12:40) 8.89 (12:40) 1 0.1 0.6 0.1 0.2
22-03-2020 8.8 (12:50) 1.5 (06:00) 5.2 8.33 (19:00) 5.83 (19:00) 4.1 0.1 0 3.9 0.1
21-03-2020 10.8 (11:10) 2 (00:00) 6.4 8.61 (13:00) 5.56 (00:10) 11.5 0.1 0 5.2 6.2
20-03-2020 10.4 (12:00) 4 (00:00) 7.2 10 (14:00) 6.67 (17:30) 0 0 0 0 0
19-03-2020 11.4 (13:10) 2.4 (00:00) 6.9 10 (14:10) 6.67 (12:40) 0 0 0 0 0
18-03-2020 13.4 (15:30) 3 (00:00) 8.2 13.06 (01:40) 7.5 (12:20) 0 0 0 0 0
17-03-2020 10.8 (13:10) 0.1 (00:00) 5.5 14.17 (18:30) 8.06 (11:50) 1.3 0 0.2 1.1 0
16-03-2020 9.3 (02:00) -0.8 (-00:0) 4.3 13.33 (07:50) 6.67 (08:00) 16.2 2.9 8.7 4.6 0
15-03-2020 18.6 (14:40) 6.6 (00:00) 12.6 10.28 (18:00) 7.22 (17:00) 0.2 0 0 0 0.2
14-03-2020 20.5 (16:30) 5 (00:00) 12.8 7.5 (18:20) 5 (18:30) 0 0 0 0 0
13-03-2020 20.6 (13:20) 7.3 (23:59) 14 13.61 (09:50) 6.11 (16:00) 0 0 0 0 0
12-03-2020 24.2 (15:40) 10.6 (00:00) 17.4 7.5 (14:00) 5 (14:00) 0 0 0 0 0
11-03-2020 24.2 (17:20) 8.9 (00:00) 16.6 6.67 (06:40) 5.28 (06:30) 0 0 0 0 0
10-03-2020 -- (--) -- (--) -- -- (--) -- (--) -- -- -- -- 0
09-03-2020 -- (--) -- (--) -- -- (--) -- (--) -- -- -- -- --
08-03-2020 -- (--) -- (--) -- -- (--) -- (--) -- -- -- -- --
07-03-2020 -- (--) -- (--) -- -- (--) -- (--) -- -- -- -- --
06-03-2020 -- (--) -- (--) -- -- (--) -- (--) -- -- -- -- --
05-03-2020 -- (--) -- (--) -- -- (--) -- (--) -- 0 -- -- --
04-03-2020 12.8 (12:30) 7.6 (00:00) 10.2 14.72 (10:50) 11.11 (10:50) 0 0 0 0 0
03-03-2020 11.5 (16:00) 2.1 (00:00) 6.8 29.72 (11:00) 15.28 (16:20) 0 0 0 0 0
02-03-2020 12.5 (13:20) 2.2 (00:00) 7.4 24.44 (12:20) 15.28 (12:20) 1.3 0 0.5 0.8 0
01-03-2020 12.9 (15:50) 6.4 (00:00) 9.6 16.39 (13:20) 10.83 (12:40) 0 0 0 0 0
29-02-2020 15 (14:30) 5.5 (00:00) 10.3 13.61 (10:00) 8.33 (10:00) 0 0 0 0 0

Gráficas

Temp. máximas Temp. mínimas Temp. medias Precipitaciones Rachas de viento máximas Velocidades máximas media en intervalos de 10 minutos

Datos horarios

Fecha y hora oficial Temperatura (ºC) Velocidad del viento (km/h) Dirección del viento Racha (km/h) Dirección de racha Precipitación (mm) Presión (hPa) Tendencia (hPa) Humedad (%)
2020-03-29 23:00:00 8.3 5 Oeste 14 Noroeste 0 914.1 -0.3 49
2020-03-29 22:00:00 9.2 6 Noroeste 16 Noroeste 0 914 -0.4 46
2020-03-29 21:00:00 10.3 12 Noroeste 19 Noroeste 0 913.8 -0.9 43
2020-03-29 20:00:00 11.6 10 Noroeste 23 Noroeste 0 914.4 -0.6 40
2020-03-29 19:00:00 13.6 12 Noroeste 26 Oeste 0 914.4 -1.3 37
2020-03-29 18:00:00 14.1 12 Noroeste 31 Noroeste 0 914.7 -1.6 36
2020-03-29 17:00:00 14.4 15 Oeste 29 Oeste 0 915 -1.7 37
2020-03-29 16:00:00 13.5 12 Noroeste 29 Noroeste 0 915.7 -1.3 39
2020-03-29 15:00:00 12.8 13 Noroeste 26 Noroeste 0 916.3 -1 42
2020-03-29 14:00:00 11.4 12 Noroeste 28 Norte 0 916.7 -0.3 45
2020-03-29 13:00:00 10.5 14 Noroeste 26 Noroeste 0 917 0.6 49
2020-03-29 12:00:00 9.1 12 Noroeste 20 Noroeste 0 917.3 1.5 55
2020-03-29 11:00:00 7.7 13 Norte 19 Noroeste 0 917 1.5 57
2020-03-29 10:00:00 5.8 8 Norte 14 Norte 0 916.4 1 70
2020-03-29 09:00:00 3.1 8 Norte 12 Norte 0 915.8 0.4 79
2020-03-29 08:00:00 2 7 Norte 13 Norte 0 915.5 -0.2 79
2020-03-29 07:00:00 2.6 3 Norte 7 Norte 0 915.4 -0.8 77
2020-03-29 06:00:00 3.1 0 Calma 7 Norte 0 915.4 -1.4 77
2020-03-29 05:00:00 3.4 5 Norte 8 Norte 0 915.7 -1.3 77
2020-03-29 03:00:00 4.1 0 Calma 3 Norte 0 916.8 -0.2 75
2020-03-29 01:00:00 4.1 0 Calma -- -- 0 917 0 75
2020-03-29 00:00:00 4.3 0 Calma 6 Sudeste 0 917.1 0.3 74
2020-03-28 23:00:00 4.2 5 Sudeste 12 Este 0 917 0.5 73
2020-03-28 22:00:00 4.6 9 Este 12 Este 0 917 0.7 68
2020-03-28 21:00:00 5.3 0 Calma 6 Este 0 916.8 0.5 65
2020-03-28 20:00:00 6 0 Calma 4 Oeste 0 916.5 0.6 61
2020-03-28 19:00:00 8 4 Oeste 10 Oeste 0 916.3 0.4 55
2020-03-28 18:00:00 8.9 8 Oeste 12 Oeste 0 916.3 0.4 50
2020-03-28 17:00:00 9.9 5 Sur 13 Sudeste 0 915.9 -0.4 47
2020-03-28 16:00:00 10.3 3 Sudeste 13 Sudeste 0 915.9 -0.5 48
2020-03-28 15:00:00 9.7 4 Sur 13 Este 0 915.9 -0.4 53
2020-03-28 14:00:00 8.7 6 Sudeste 16 Sudeste 0 916.3 0.2 53
2020-03-28 13:00:00 7.9 5 Nordeste 18 Nordeste 0 916.4 1.1 59
2020-03-28 12:00:00 7.6 6 Nordeste 13 Nordeste 0 916.3 2 61
2020-03-28 11:00:00 6.5 5 Sur 10 Sudeste 0 916.1 2.3 70
2020-03-28 10:00:00 4.6 4 Sur 10 Sudoeste 0 915.3 2 93
2020-03-28 09:00:00 2.9 4 Sudeste 9 Sudoeste 0 914.3 1.4 93
2020-03-28 08:00:00 0.9 5 Sudeste 9 Sudeste 0 913.8 0.9 93
2020-03-28 07:00:00 0.4 0 Calma 3 Este 0 913.3 0.4 93
2020-03-28 06:00:00 0 3 Sur 8 Este 0 912.9 0.2 93
2020-03-28 05:00:00 0.8 6 Sudeste 10 Este 0 912.9 0.1 93
2020-03-28 04:00:00 1.8 4 Este 8 Sudeste 0 912.9 0.2 93
2020-03-28 03:00:00 1.8 5 Sudeste 9 Sudeste 0 912.7 0.2 93
2020-03-28 02:00:00 1.9 7 Sudeste 20 Sudeste 0.1 912.8 0.7 93
2020-03-28 01:00:00 2.3 11 Este 21 Este 0 912.7 1.2 93
2020-03-28 00:00:00 2.4 10 Sudeste 19 Sudeste 0.3 912.5 1.6 93
2020-03-27 23:00:00 2.1 5 Sur 21 Sudeste 0 912.1 2.1 93
2020-03-27 22:00:00 1.7 15 Este 25 Este 0.1 911.5 1.8 93
2020-03-27 21:00:00 1.5 15 Este 27 Este 0.5 910.9 1.6 93
2020-03-27 20:00:00 0.9 20 Sudeste 29 Este 2.3 910 1.1 93
2020-03-27 19:00:00 0.1 9 Este 20 Sudeste 1.7 909.7 0.6 93
2020-03-27 18:00:00 -0.1 9 Este 26 Este 2.3 909.3 0.2 93
2020-03-27 17:00:00 1 17 Este 32 Sudeste 2.1 908.9 -0.4 93
2020-03-27 16:00:00 0.7 22 Sudeste 29 Este 2.9 909.1 -0.4 93
2020-03-27 15:00:00 0.4 10 Este 22 Sudeste 2.2 909.1 -0.2 93
2020-03-27 14:00:00 0.5 10 Este 21 Este 2.4 909.3 -0.1 93
2020-03-27 13:00:00 -0.3 13 Este 22 Este 1.7 909.5 1.1 93
2020-03-27 12:00:00 -0.5 10 Este 22 Sudeste 0.3 909.3 1.3 93
2020-03-27 11:00:00 0.1 17 Sudeste 33 Sudeste 3.6 909.4 1.4 93
2020-03-27 10:00:00 0.7 20 Sudeste 31 Sudeste 2 908.4 1.3 92
2020-03-27 09:00:00 -0.7 16 Sudeste 28 Sudeste 1.9 908 0.5 90
2020-03-27 08:00:00 1 21 Sudeste 30 Sudeste 0.6 908 0.5 89
2020-03-27 07:00:00 1.2 21 Sudeste 33 Este 0 907.1 -0.5 86
2020-03-27 06:00:00 1.3 20 Sudeste 30 Sudeste 0 907.5 -0.7 85
2020-03-27 05:00:00 1.5 22 Sudeste 32 Sudeste 0 907.5 -1.1 87
2020-03-27 04:00:00 1.9 18 Sudeste 32 Sudeste 0 907.6 -1.1 87
2020-03-27 03:00:00 2.2 12 Sudeste 22 Sudeste 0 908.2 -0.6 87
2020-03-27 02:00:00 2.2 14 Sudeste 19 Sudeste 0 908.6 0.5 85
2020-03-27 01:00:00 2.3 10 Sudeste 22 Sudeste 0 908.7 1.2 81
2020-03-27 00:00:00 2.6 14 Sudeste 24 Sudeste 0 908.8 1 79
2020-03-26 23:00:00 2.2 15 Sudeste 24 Este 0 908.1 0.7 80
2020-03-26 22:00:00 2.6 17 Este 28 Este 0 907.5 0.2 74
2020-03-26 21:00:00 4.5 19 Sudeste 27 Este 0 907.8 0.6 57
2020-03-26 20:00:00 6.2 7 Nordeste 17 Norte 0 907.4 0.6 42
2020-03-26 19:00:00 9.1 9 Norte 30 Norte 0 907.3 0.5 34
2020-03-26 18:00:00 9.9 19 Norte 42 Noroeste 0 907.2 0.2 30
2020-03-26 17:00:00 10.1 25 Norte 49 Norte 0 906.8 -0.1 29
2020-03-26 16:00:00 10 25 Norte 46 Norte 0 906.8 -0.4 29
2020-03-26 15:00:00 10 28 Norte 46 Norte 0 907 -0.5 31
2020-03-26 14:00:00 9.5 24 Norte 48 Norte 0 906.9 -0.4 35
2020-03-26 13:00:00 8.1 23 Norte 43 Norte 0 907.2 0.2 47
2020-03-26 12:00:00 7.4 14 Noroeste 31 Noroeste 0 907.5 0.7 66
2020-03-26 11:00:00 5.6 16 Noroeste 33 Noroeste 0 907.3 0.5 80
2020-03-26 10:00:00 3.9 23 Noroeste 41 Noroeste 0 907 0 87
2020-03-26 09:00:00 3.3 25 Noroeste 43 Norte 0 906.8 -0.3 93
2020-03-26 08:00:00 3.7 16 Norte 29 Norte 0 906.8 -0.9 92
2020-03-26 07:00:00 4 11 Noroeste 21 Norte 0 907 -1.3 91
2020-03-26 06:00:00 4.2 13 Noroeste 19 Noroeste 0 907.1 -1.7 92
2020-03-26 05:00:00 3.5 0 Calma 5 Sudeste 0 907.7 -2 92
2020-03-26 04:00:00 3.6 2 Sur 12 Sur 0.1 908.3 -2 92
2020-03-26 03:00:00 3.9 7 Sur 15 Sur 0 908.8 -2.8 92
2020-03-26 02:00:00 3.8 10 Sur 17 Sur 0 909.7 -2 91
2020-03-26 01:00:00 3.8 11 Sur 21 Sudoeste 0 910.3 -2.2 90
2020-03-26 00:00:00 4.2 5 Sudoeste 13 Sur 0 911.6 -0.7 89
2020-03-25 23:00:00 4.1 7 Sur 14 Sur 0.4 911.7 -0.2 87
2020-03-25 22:00:00 4.5 10 Sur 15 Sur 0.7 912.5 0.7 84
2020-03-25 21:00:00 5.2 6 Sur 14 Este 0 912.3 -0.2 82
2020-03-25 20:00:00 5.3 8 Este 26 Este 0 911.9 -0.5 76
2020-03-25 19:00:00 6 14 Este 34 Nordeste 0.1 911.8 -0.9 75
2020-03-25 18:00:00 5.7 19 Nordeste 49 Norte 0 912.5 -0.6 68
2020-03-25 17:00:00 9.8 10 Noroeste 36 Oeste 0 912.4 -1.5 45
2020-03-25 16:00:00 10.5 11 Noroeste 27 Oeste 0 912.7 -1.4 51
2020-03-25 15:00:00 8.8 13 Norte 23 Norte 0 913.1 -1.2 56
2020-03-25 14:00:00 8.6 7 Oeste 18 Oeste 0 913.9 -0.4 65
2020-03-25 13:00:00 6.6 0 Calma 8 Sur 0 914.1 0 82
2020-03-25 12:00:00 5.4 0 Calma 15 Norte 1.4 914.3 0.5 80
2020-03-25 11:00:00 7.8 5 Sudoeste 11 Sudeste 0 914.3 0.9 71
2020-03-25 10:00:00 4.9 7 Sudeste 17 Sudeste 0 914.1 0.8 84
2020-03-25 09:00:00 3.7 9 Sudeste 14 Este 0 913.8 0.7 91
2020-03-25 08:00:00 3.1 3 Sudeste 14 Nordeste 0 913.4 -0.1 91
2020-03-25 07:00:00 2.6 9 Nordeste 19 Nordeste 0 913.3 -0.1 91
2020-03-25 06:00:00 2.8 6 Norte 12 Norte 0 913.1 -0.6 90
2020-03-25 05:00:00 2.2 0 Calma 14 Nordeste 0 913.5 -0.4 90
2020-03-25 04:00:00 2.4 8 Nordeste 20 Nordeste 0 913.4 -0.6 89
2020-03-25 03:00:00 1.8 4 Nordeste 14 Este 0 913.7 -0.5 85
2020-03-25 02:00:00 2.4 7 Este 21 Este 0.1 913.9 -0.5 83
2020-03-25 01:00:00 3 10 Este 23 Sudeste 0 914 -0.4 80
2020-03-25 00:00:00 3.6 11 Este 21 Este 0 914.2 0 81
2020-03-24 23:00:00 4.2 12 Este 26 Este 0 914.4 0.6 77
2020-03-24 22:00:00 4.1 12 Este 33 Este 0 914.4 1.1 77
2020-03-24 21:00:00 4.2 10 Este 28 Sudeste 0 914.2 1.4 76
2020-03-24 20:00:00 4.8 11 Este 36 Este 0 913.8 1.1 76
2020-03-24 19:00:00 5.3 10 Este 35 Este 0 913.3 0.9 77
2020-03-24 18:00:00 5.5 17 Este 40 Este 0 912.8 0.1 81
2020-03-24 17:00:00 6.1 17 Este 39 Este 0 912.7 -0.3 81
2020-03-24 16:00:00 6.5 18 Este 41 Este 0 912.4 -0.9 81
2020-03-24 15:00:00 6.9 16 Este 48 Sudeste 0 912.7 -0.8 80
2020-03-24 14:00:00 7.6 24 Este 48 Sudeste 0 913 -0.3 82
2020-03-24 13:00:00 7.1 17 Este 39 Sudeste 0 913.3 0.2 86
2020-03-24 12:00:00 6.8 19 Este 43 Este 0.1 913.5 0.7 87
2020-03-24 11:00:00 7 19 Este 44 Este 0.3 913.3 0.6 92
2020-03-24 10:00:00 6.4 28 Este 46 Este 0.3 913.1 0.5 93
2020-03-24 09:00:00 5.8 26 Este 41 Este 1 912.8 0.4 92
2020-03-24 08:00:00 5.4 24 Este 37 Sudeste 2.4 912.7 0.2 92
2020-03-24 07:00:00 5.7 19 Este 30 Este 2.4 912.6 0.1 92
2020-03-24 06:00:00 5.8 13 Sudeste 25 Este 3.2 912.4 -0.3 91
2020-03-24 05:00:00 5.8 14 Sudeste 32 Sudeste 0.8 912.5 -0.4 90
2020-03-24 04:00:00 5.7 23 Sudeste 41 Sudeste 0.2 912.5 -0.6 90
2020-03-24 03:00:00 6.3 26 Sudeste 40 Este 0 912.7 -0.7 88
2020-03-24 02:00:00 6.5 25 Este 41 Este 0.1 912.9 -0.9 87
2020-03-24 01:00:00 6.5 21 Este 33 Este 0 913.1 -0.4 87
2020-03-24 00:00:00 6.3 18 Este 32 Este 0 913.4 -0.2 87
2020-03-23 23:00:00 6.2 21 Este 40 Sudeste 0 913.8 0.8 87
2020-03-23 22:00:00 6.2 22 Este 37 Este 0.1 913.5 0.7 87
2020-03-23 21:00:00 6.7 20 Este 36 Este 0 913.6 0.8 86
2020-03-23 20:00:00 7.1 17 Este 39 Sudeste 0 913 0.2 83
2020-03-23 19:00:00 7.5 21 Este 43 Este 0.1 912.8 -0.4 80
2020-03-23 18:00:00 8.6 23 Este 40 Sudeste 0 912.8 -0.4 76
2020-03-23 17:00:00 8.5 17 Este 39 Este 0 912.8 -0.7 71
2020-03-23 16:00:00 11 16 Sudeste 36 Sudeste 0 913.2 -1 62
2020-03-23 15:00:00 10.5 21 Sudeste 31 Sudeste 0 913.2 -0.8 68
2020-03-23 14:00:00 7 17 Sudeste 43 Sudeste 0 913.5 -0.5 80
2020-03-23 13:00:00 7.2 30 Sudeste 48 Sudeste 0.1 914.2 0.6 85
2020-03-23 12:00:00 8.1 29 Sudeste 44 Sudeste 0.5 914 1.1 84
2020-03-23 11:00:00 8.5 24 Sudeste 35 Sur 0 914 1.7 74
2020-03-23 10:00:00 8 21 Sudeste 32 Sudeste 0.1 913.6 2 86
2020-03-23 09:00:00 6.5 17 Sudeste 24 Sudeste 0 912.9 1.4 92
2020-03-23 08:00:00 5.7 13 Sudeste 24 Sudeste 0 912.3 1 92
2020-03-23 07:00:00 5.2 18 Sudeste 28 Este 0 911.6 0.4 92
2020-03-23 06:00:00 5.3 12 Sudeste 20 Sudeste 0 911.5 0 92
2020-03-23 05:00:00 5.5 12 Sudeste 19 Sudeste 0 911.3 -0.3 92
2020-03-23 04:00:00 5.3 9 Sudeste 14 Sudeste 0 911.2 -0.5 92
2020-03-23 03:00:00 5.3 8 Sudeste 17 Sudeste 0 911.5 -0.4 92
2020-03-23 02:00:00 5.2 11 Sudeste 17 Sudeste 0.1 911.6 -0.3 92
2020-03-23 01:00:00 5.2 8 Este 17 Sudeste 0 911.7 0.1 91
2020-03-23 00:00:00 5.1 10 Sudeste 19 Sudeste 0 911.9 0.7 91
2020-03-22 23:00:00 5 9 Sudeste 14 Sudeste 0 911.9 1.3 90
2020-03-22 22:00:00 4.8 9 Sudeste 22 Sudeste 0.1 911.6 1.2 90
2020-03-22 21:00:00 5.3 15 Sudeste 22 Sudeste 0 911.2 1.4 90
2020-03-22 20:00:00 5.5 12 Sudeste 27 Sudeste 0 910.6 1.3 88
2020-03-22 19:00:00 6.8 21 Sudeste 30 Sudeste 0 910.4 1.1 87
2020-03-22 18:00:00 7.3 13 Sudeste 21 Sudeste 0 909.8 0.5 90
2020-03-22 17:00:00 6.4 15 Sur 23 Sudeste 2 909.3 -0.4 90
2020-03-22 16:00:00 6.5 17 Sudeste 25 Sudeste 0.1 909.3 -0.9 89
2020-03-22 15:00:00 6.5 15 Sudeste 22 Sur 0.9 909.3 -1 88
2020-03-22 14:00:00 6.8 14 Sur 24 Sur 0.9 909.7 -0.5 84
2020-03-22 13:00:00 8.3 16 Sudeste 25 Sudeste 0 910.2 0.4 74
2020-03-22 12:00:00 6.8 12 Sudeste 26 Sudeste 0 910.3 1 83
2020-03-22 11:00:00 6.7 14 Sudeste 23 Sudeste 0 910.2 1.4 87
2020-03-22 10:00:00 6.4 11 Sudeste 21 Sudeste 0 909.8 1.5 93
2020-03-22 09:00:00 5 10 Este 15 Este 0 909.3 1.2 94
2020-03-22 08:00:00 3.3 9 Este 15 Sudeste 0 908.8 0.9 93
2020-03-22 07:00:00 1.9 0 Calma 13 Sudeste 0 908.3 -0.1 93
2020-03-22 06:00:00 1.6 2 Este 14 Este 0 908.1 -0.5 93
2020-03-22 05:00:00 2.7 7 Este 13 Este 0 907.9 -1.2 93
2020-03-22 04:00:00 2.1 0 Calma 5 Sudeste 0 908.4 -1.3 92
2020-03-22 03:00:00 2 3 Sudeste 6 Este 0.1 908.6 -1.2 92
2020-03-22 02:00:00 2.1 0 Calma 5 Nordeste 0 909.1 -0.9 92
2020-03-22 01:00:00 2.4 0 Calma 17 Este 0 909.7 -0.5 92
2020-03-22 00:00:00 2.3 11 Este 20 Este 0 909.8 -0.9 91
2020-03-21 23:00:00 2.4 10 Este 18 Este 0 910 -0.6 91
2020-03-21 22:00:00 3.1 10 Este 21 Este 0.1 910.2 -0.4 92
2020-03-21 21:00:00 3.4 0 Calma 14 Este 0.1 910.7 0.6 92
2020-03-21 20:00:00 3.7 6 Este 12 Este 3.1 910.6 0.5 92
2020-03-21 19:00:00 3.8 5 Oeste 13 Norte 2.9 910.6 0.7 92
2020-03-21 18:00:00 3.7 8 Noroeste 27 Oeste 1.9 910.1 -0.3 92
2020-03-21 17:00:00 4.8 11 Noroeste 21 Norte 1.6 910.1 -0.7 92
2020-03-21 16:00:00 4.6 8 Norte 28 Noroeste 0.8 909.9 -2 92
2020-03-21 15:00:00 4.8 17 Norte 27 Noroeste 0.9 910.4 -1.5 91
2020-03-21 14:00:00 5.2 14 Noroeste 30 Noroeste 0 910.8 -1.2 85
2020-03-21 13:00:00 6.6 19 Noroeste 31 Noroeste 0 911.9 0 71
2020-03-21 12:00:00 10.3 13 Sur 25 Sudeste 0 911.9 0.2 64
2020-03-21 11:00:00 9.8 15 Sudeste 27 Sudeste 0 912 0.4 74
2020-03-21 10:00:00 7.1 15 Sudeste 23 Sudeste 0 911.9 0.4 89
2020-03-21 09:00:00 5.9 14 Sudeste 25 Sudeste 0 911.7 0.2 92
2020-03-21 08:00:00 5.4 17 Sudeste 25 Sudeste 0 911.6 0 92
2020-03-21 07:00:00 5.3 16 Sudeste 24 Sudeste 0 911.5 -0.4 92
2020-03-21 06:00:00 5.5 15 Sudeste 23 Sudeste 0 911.5 -0.8 92
2020-03-21 05:00:00 5.4 15 Sudeste 23 Sudeste 0 911.6 -1.4 92
2020-03-21 04:00:00 5.5 12 Sudeste 23 Sudeste 0 911.9 -1.9 92
2020-03-21 03:00:00 5.6 16 Sudeste 23 Sudeste 0 912.3 -2 92
2020-03-21 02:00:00 5.5 18 Este 26 Este 0.1 913 -1.7 92
2020-03-21 01:00:00 5.5 16 Sudeste 27 Sudeste 0 913.8 -1 91
2020-03-21 00:00:00 5.7 16 Sudeste 27 Sudeste 0 914.3 0.1 90
2020-03-20 23:00:00 5.9 19 Sudeste 28 Sudeste 0 914.7 0.7 85
2020-03-20 22:00:00 6 19 Sudeste 29 Sudeste 0 914.8 0.8 84
2020-03-20 21:00:00 6.2 15 Sudeste 22 Sudeste 0 914.2 0 84
2020-03-20 20:00:00 6.2 12 Sudeste 22 Sudeste 0 914 -0.6 82
2020-03-20 19:00:00 6.5 17 Sudeste 32 Este 0 914 -0.7 82
2020-03-20 18:00:00 7.7 20 Sudeste 36 Este 0 914.2 -1.2 75
2020-03-20 17:00:00 9 21 Este 29 Este 0 914.6 -1 71
2020-03-20 16:00:00 8.3 20 Sudeste 30 Sudeste 0 914.7 -1.3 74
2020-03-20 15:00:00 8.9 22 Sudeste 35 Sudeste 0 915.4 -1.1 73
2020-03-20 14:00:00 8.4 24 Sudeste 36 Sudeste 0 915.6 -0.6 77
2020-03-20 13:00:00 8.3 23 Sudeste 34 Sudeste 0 916 -0.3 75
2020-03-20 12:00:00 9.7 18 Sudeste 33 Sudeste 0 916.5 0.9 64
2020-03-20 11:00:00 8.8 19 Sudeste 28 Sudeste 0 916.2 1 69
2020-03-20 10:00:00 8.1 17 Sudeste 28 Sudeste 0 916.3 1.3 73
2020-03-20 09:00:00 6.6 12 Sudeste 19 Sudeste 0 915.6 0.9 87
2020-03-20 08:00:00 5.7 6 Sudeste 13 Sudeste 0 915.2 0.3 91
2020-03-20 07:00:00 5.1 5 Sudeste 16 Sudeste 0 915 0.1 91
2020-03-20 06:00:00 5.1 4 Sudeste 7 Sudeste 0 914.7 -0.7 91
2020-03-20 05:00:00 4.8 5 Sudeste 12 Sudeste 0 914.9 -1.1 91
2020-03-20 04:00:00 4.5 10 Sudeste 23 Sudeste 0 914.9 -1.3 91
2020-03-20 03:00:00 4.4 19 Sudeste 27 Sudeste 0 915.4 -1.5 91
2020-03-20 02:00:00 4.3 18 Sudeste 30 Sudeste 0 916 -1.2 90
2020-03-20 01:00:00 4.2 19 Sudeste 28 Sudeste 0 916.2 -1.2 87
2020-03-20 00:00:00 5.3 19 Sudeste 31 Sudeste 0 916.9 -0.5 83
2020-03-19 23:00:00 6.3 18 Sudeste 30 Sudeste 0 917.2 0 84
2020-03-19 22:00:00 6.6 17 Sudeste 26 Sudeste 0 917.4 0.2 86
2020-03-19 21:00:00 7 18 Sudeste 27 Sudeste 0 917.4 0.3 85
2020-03-19 20:00:00 7.2 18 Sudeste 32 Este 0 917.2 -0.3 84
2020-03-19 19:00:00 8 19 Sudeste 32 Sudeste 0 917.2 -0.5 78
2020-03-19 18:00:00 8.8 21 Sudeste 34 Sudeste 0 917.1 -1.4 70
2020-03-19 17:00:00 9.6 20 Sudeste 29 Sudeste 0 917.5 -1.7 66
2020-03-19 16:00:00 9.6 19 Sudeste 29 Sudeste 0 917.7 -2.1 63
2020-03-19 15:00:00 9.7 18 Sudeste 36 Sudeste 0 918.5 -1.6 61
2020-03-19 14:00:00 10 21 Sudeste 35 Sudeste 0 919.2 -1 58
2020-03-19 13:00:00 11 21 Sudeste 35 Sudeste 0 919.8 -0.1 56
2020-03-19 12:00:00 9.9 23 Sudeste 35 Sudeste 0 920.1 0.6 61
2020-03-19 11:00:00 8.8 21 Sudeste 32 Sudeste 0 920.2 1.2 74
2020-03-19 10:00:00 6.9 16 Sudeste 24 Sudeste 0 919.9 1 92
2020-03-19 09:00:00 5.5 10 Sudeste 14 Sudeste 0 919.5 0.4 93
2020-03-19 08:00:00 3.6 7 Este 15 Este 0 919 0.1 92
2020-03-19 07:00:00 2.6 11 Este 14 Este 0 918.9 -0.2 92
2020-03-19 06:00:00 2.7 9 Este 15 Este 0 919.1 -0.6 92
2020-03-19 05:00:00 2.7 9 Este 17 Sudeste 0 918.9 -1.3 91
2020-03-19 04:00:00 2.7 12 Este 15 Este 0 919.1 -1.5 91
2020-03-19 03:00:00 2.6 11 Sudeste 19 Este 0 919.7 -1.5 90
2020-03-19 02:00:00 3.3 11 Este 23 Este 0 920.2 -1.5 89
2020-03-19 01:00:00 3 12 Este 21 Sudeste 0 920.6 -1.2 87
2020-03-19 00:00:00 3.2 13 Este 23 Este 0 921.2 -0.6 87
2020-03-18 23:00:00 3.3 12 Este 18 Sudeste 0 921.7 0.1 86
2020-03-18 22:00:00 4.2 13 Este 22 Este 0 921.8 0 84
2020-03-18 21:00:00 5 7 Sudeste 19 Sudeste 0 921.8 0 81
2020-03-18 20:00:00 6 13 Sudeste 24 Sudeste 0 921.6 -0.4 73
2020-03-18 19:00:00 8 15 Sudeste 28 Sudeste 0 921.8 -0.6 61
2020-03-18 18:00:00 10.7 19 Sudeste 33 Sudeste 0 921.8 -1 50
2020-03-18 17:00:00 12.3 20 Sudeste 35 Sudeste 0 922 -1.4 48
2020-03-18 16:00:00 13 20 Sudeste 34 Sudeste 0 922.4 -1.4 49
2020-03-18 15:00:00 13 21 Sudeste 34 Sudeste 0 922.8 -1.3 52
2020-03-18 14:00:00 12.4 20 Sudeste 39 Sudeste 0 923.4 -0.6 58
2020-03-18 13:00:00 9.4 24 Sudeste 36 Sudeste 0 923.8 0 66
2020-03-18 12:00:00 8.9 21 Sudeste 32 Sudeste 0 924.1 0.8 65
2020-03-18 11:00:00 8.6 20 Sudeste 35 Sudeste 0 924 0.6 74
2020-03-18 10:00:00 7.7 20 Este 38 Este 0 923.8 0.6 84
2020-03-18 09:00:00 6.8 19 Sudeste 32 Sudeste 0 923.3 0.4 89
2020-03-18 08:00:00 6.9 16 Sudeste 26 Este 0 923.4 0.6 87
2020-03-18 07:00:00 7 15 Este 35 Este 0 923.2 0.9 83
2020-03-18 06:00:00 7.1 19 Este 41 Este 0 922.9 0.7 83
2020-03-18 05:00:00 6.8 14 Sudeste 26 Sudeste 0 922.8 0.3 83
2020-03-18 04:00:00 6.6 13 Este 41 Este 0 922.3 -0.1 84
2020-03-18 03:00:00 6.4 26 Este 47 Sudeste 0 922.2 -1 82
2020-03-18 02:00:00 6.5 24 Este 47 Sudeste 0 922.5 -0.6 81
2020-03-18 01:00:00 7 19 Este 44 Este 0 922.4 -0.7 82
2020-03-18 00:00:00 7.5 14 Este 44 Este 0 923.2 0.7 83
2020-03-17 23:00:00 7.7 18 Este 40 Sudeste 0 923.1 1.1 82
2020-03-17 22:00:00 8 21 Este 45 Este 0 923.1 1.7 81
2020-03-17 21:00:00 8.4 18 Este 43 Este 0 922.5 1.4 84
2020-03-17 20:00:00 8.6 19 Este 46 Este 0 922 1.1 84
2020-03-17 19:00:00 9 19 Este 51 Este 0 921.4 0.3 83
2020-03-17 18:00:00 10 17 Este 40 Este 0 921.1 0 79
2020-03-17 17:00:00 10.3 15 Este 35 Nordeste 0 920.9 -0.6 81
2020-03-17 16:00:00 10.1 15 Este 36 Este 0 921.1 -0.4 84
2020-03-17 15:00:00 10.3 17 Este 32 Este 0.6 921.1 -0.2 88
2020-03-17 14:00:00 9.1 15 Este 33 Este 0.5 921.5 0.5 81
2020-03-17 13:00:00 10.7 19 Este 35 Sudeste 0 921.5 0.9 75
2020-03-17 12:00:00 7.5 23 Sudeste 39 Sudeste 0.2 921.3 1.9 85
2020-03-17 11:00:00 7.2 20 Sudeste 30 Sudeste 0 921 2.6 81
2020-03-17 10:00:00 6.4 18 Sudeste 32 Sudeste 0 920.6 3 84
2020-03-17 09:00:00 5.5 12 Sudeste 19 Sudeste 0 919.4 2.5 90
2020-03-17 08:00:00 3.8 15 Sudeste 26 Sudeste 0 918.4 2.4 91
2020-03-17 07:00:00 3.8 18 Sudeste 25 Sudeste 0 917.6 1.8 91
2020-03-17 06:00:00 3.6 12 Sudeste 18 Sudeste 0 916.9 1.5 91
2020-03-17 05:00:00 3.6 10 Sudeste 16 Sudeste 0 916 1.2 91
2020-03-17 04:00:00 2.9 12 Sudeste 24 Sudeste 0 915.8 1 90
2020-03-17 03:00:00 2.1 7 Sudeste 15 Sudeste 0 915.4 0.8 90
2020-03-17 02:00:00 1.8 10 Sudeste 15 Sudeste 0 914.8 0.7 90
2020-03-17 01:00:00 0.3 0 Calma 5 Sur 0 914.8 1.4 87
2020-03-17 00:00:00 0.8 0 Calma 9 Este 0 914.6 2.2 84
2020-03-16 23:00:00 0.3 6 Este 12 Este 0 914.1 2.3 81
2020-03-16 22:00:00 1.1 3 Este 21 Nordeste 0 913.4 2.3 75
2020-03-16 21:00:00 1.2 11 Nordeste 23 Nordeste 0 912.4 2.1 75
2020-03-16 20:00:00 1.4 12 Nordeste 27 Nordeste 0 911.8 2 79
2020-03-16 19:00:00 1.9 13 Nordeste 32 Nordeste 0 911.1 1.3 81
2020-03-16 18:00:00 1.8 18 Nordeste 33 Nordeste 0 910.3 0.9 85
2020-03-16 17:00:00 2.8 16 Nordeste 30 Nordeste 0 909.8 0.7 83
2020-03-16 16:00:00 2.5 12 Nordeste 22 Norte 0.7 909.8 -0.1 89
2020-03-16 15:00:00 0.8 12 Nordeste 21 Nordeste 1.3 909.4 -0.2 93
2020-03-16 14:00:00 0.6 10 Nordeste 21 Nordeste 1.7 909.1 -0.7 93
2020-03-16 13:00:00 -0.4 8 Nordeste 23 Norte 0.9 909.9 0.4 93
2020-03-16 12:00:00 -0.3 8 Norte 28 Noroeste 0.3 909.6 0.3 93
2020-03-16 11:00:00 0 7 Norte 25 Noroeste 1.6 909.8 0.5 93
2020-03-16 10:00:00 -0.5 17 Norte 33 Noroeste 4 909.5 1.6 93
2020-03-16 09:00:00 0.9 15 Noroeste 40 Noroeste 2.8 909.3 1.4 93
2020-03-16 08:00:00 3.5 24 Norte 48 Noroeste 0 909.3 0.8 90
2020-03-16 07:00:00 7.3 19 Sur 29 Sur 0 907.9 -1 91
2020-03-16 06:00:00 7.3 15 Sudeste 24 Sudeste 0 907.9 -2.1 91
2020-03-16 05:00:00 7.3 12 Sudeste 22 Sudeste 0 908.5 -2.6 91
2020-03-16 04:00:00 6.9 12 Sudeste 28 Sudeste 0 908.9 -2.6 90
2020-03-16 03:00:00 7 16 Sudeste 33 Sur 0.9 910 -2.4 90
2020-03-16 02:00:00 7.7 23 Sur 31 Sur 1.6 911.1 -1.7 90
2020-03-16 01:00:00 8.1 9 Este 29 Sudeste 0.4 911.5 -1.1 87
2020-03-16 00:00:00 8.6 14 Sudeste 21 Sudeste 0.2 912.4 0.1 85
2020-03-15 23:00:00 9.3 12 Sudeste 18 Sudeste 0 912.8 0.4 78
2020-03-15 22:00:00 9.4 13 Sudeste 22 Sudeste 0 912.6 0.1 74
2020-03-15 21:00:00 9.5 15 Sudeste 23 Sudeste 0 912.3 -0.1 73
2020-03-15 20:00:00 10.2 14 Sudeste 27 Sur 0 912.4 -0.1 64
2020-03-15 19:00:00 12.1 18 Sur 33 Sur 0 912.5 -0.5 52
2020-03-15 18:00:00 13.8 23 Sur 37 Sur 0 912.4 -1.5 42
2020-03-15 17:00:00 16.9 26 Sur 36 Sur 0 912.5 -2.2 35
2020-03-15 16:00:00 17.9 20 Sur 32 Sur 0 913 -2.7 34
2020-03-15 15:00:00 16 17 Sur 35 Sur 0 913.9 -2.4 35
2020-03-15 14:00:00 17.1 21 Sur 33 Sur 0 914.7 -2 37
2020-03-15 13:00:00 15.7 19 Sur 33 Sur 0 915.7 -0.8 40
2020-03-15 12:00:00 14.5 24 Sur 34 Sur 0 916.3 0.1 44
2020-03-15 11:00:00 13.4 19 Sur 28 Sur 0 916.7 1 51
2020-03-15 10:00:00 10.1 17 Sur 24 Sur 0 916.5 0.9 71
2020-03-15 09:00:00 7 15 Sudeste 21 Sudeste 0 916.2 0.7 92
2020-03-15 08:00:00 6.7 12 Sudeste 20 Sur 0 915.7 0 93
2020-03-15 07:00:00 6.6 15 Sudeste 23 Sudeste 0 915.6 -0.4 93
2020-03-15 06:00:00 6.7 15 Sudeste 24 Sur 0 915.5 -1 93
2020-03-15 05:00:00 7 17 Sur 24 Sudeste 0 915.7 -1.2 93
2020-03-15 04:00:00 7.2 18 Sur 22 Sudeste 0 916 -1.1 93
2020-03-15 03:00:00 7.4 13 Sudeste 22 Sudeste 0 916.5 -1 93
2020-03-15 02:00:00 7.3 12 Sudeste 18 Este 0 916.9 -0.9 91
2020-03-15 01:00:00 7.1 14 Sudeste 21 Sudeste 0 917.1 -0.7 88
2020-03-15 00:00:00 7.8 16 Sudeste 21 Sudeste 0 917.5 -0.2 84
2020-03-14 23:00:00 8.7 13 Sudeste 20 Sudeste 0 917.8 0.3 78
2020-03-14 22:00:00 10.1 14 Sudeste 18 Sudeste 0 917.8 0.6 69
2020-03-14 21:00:00 11.5 10 Sur 14 Sur 0 917.7 0.5 59
2020-03-14 20:00:00 12.7 8 Sur 21 Sur 0 917.5 0.4 54
2020-03-14 19:00:00 14.9 16 Sur 27 Sur 0 917.2 0 47
2020-03-14 18:00:00 18.3 13 Sur 21 Sur 0 917.2 -0.5 41
2020-03-14 17:00:00 20.2 11 Sudoeste 20 Sudoeste 0 917.1 -1.2 39
2020-03-14 16:00:00 20 7 Sudoeste 18 Sudoeste 0 917.2 -1.7 41
2020-03-14 15:00:00 19.4 4 Sudoeste 19 Sudoeste 0 917.7 -1.5 42
2020-03-14 14:00:00 19.1 9 Sudoeste 16 Oeste 0 918.3 -1.2 45
2020-03-14 13:00:00 15.1 8 Norte 18 Oeste 0 918.9 0.1 55
2020-03-14 12:00:00 14.6 7 Noroeste 22 Norte 0 919.2 1.2 59
2020-03-14 11:00:00 13.4 5 Noroeste 15 Norte 0 919.5 2.4 59
2020-03-14 10:00:00 12 5 Sudeste 9 Sudeste 0 918.8 2.1 61
2020-03-14 09:00:00 9.3 3 Sudeste 13 Este 0 918 1.6 74
2020-03-14 08:00:00 5.5 11 Este 13 Este 0 917.1 0.6 84
2020-03-14 07:00:00 5.6 5 Este 9 Este 0 916.7 0.1 86
2020-03-14 06:00:00 5.3 8 Sudeste 12 Sudeste 0 916.4 -0.4 87
2020-03-14 05:00:00 5.4 9 Sudeste 12 Este 0 916.5 -0.7 86
2020-03-14 04:00:00 5.7 9 Sudeste 14 Sudeste 0 916.6 -0.6 86
2020-03-14 03:00:00 5.7 12 Este 18 Este 0 916.8 -0.7 89
2020-03-14 02:00:00 6.2 13 Sudeste 18 Sudeste 0 917.2 -0.4 89
2020-03-14 01:00:00 6.6 13 Sudeste 18 Sudeste 0 917.2 0 88
2020-03-14 00:00:00 7.3 16 Sudeste 21 Sudeste 0 917.5 0.6 86
2020-03-13 23:00:00 8.4 16 Sudeste 24 Sudeste 0 917.6 1.1 84
2020-03-13 22:00:00 8.6 19 Sudeste 24 Sudeste 0 917.2 1 84
2020-03-13 21:00:00 9.7 15 Sudeste 28 Sudeste 0 916.9 1.2 77
2020-03-13 20:00:00 11.3 21 Sudeste 29 Sudeste 0 916.5 0.6 68
2020-03-13 19:00:00 13.7 19 Sudeste 31 Sudeste 0 916.2 -0.1 57
2020-03-13 18:00:00 16.5 19 Sudeste 29 Sudeste 0 915.7 -1 49
2020-03-13 17:00:00 17.7 19 Sudeste 31 Sudeste 0 915.9 -1.4 46
2020-03-13 16:00:00 19 22 Sudeste 32 Sudeste 0 916.3 -1.5 44
2020-03-13 15:00:00 18 18 Sudeste 33 Sudeste 0 916.7 -1.6 42
2020-03-13 14:00:00 19.6 16 Sur 28 Sudeste 0 917.3 -1.1 42
2020-03-13 13:00:00 20 11 Sudeste 23 Sudeste 0 917.8 -0.3 44
2020-03-13 12:00:00 18.6 11 Sudeste 19 Este 0 918.3 0.8 47
2020-03-13 11:00:00 15.8 13 Sudeste 24 Este 0 918.4 1.5 52
2020-03-13 10:00:00 13.3 17 Este 49 Este 0 918.1 1.7 58
2020-03-13 09:00:00 12.1 3 Sudeste 9 Sudeste 0 917.5 1.2 63
2020-03-13 08:00:00 10.6 0 Calma 13 Norte 0 916.9 0.8 59
2020-03-13 07:00:00 10.6 9 Norte 17 Norte 0 916.4 0.5 60
2020-03-13 06:00:00 10.6 6 Norte 16 Norte 0 916.3 -0.1 59
2020-03-13 05:00:00 11.2 9 Norte 18 Noroeste 0 916.1 -0.8 55
2020-03-13 04:00:00 11.3 5 Oeste 11 Oeste 0 915.9 -1.4 55
2020-03-13 03:00:00 11.1 0 Calma 8 Este 0 916.4 -1.3 55
2020-03-13 02:00:00 11.5 6 Sudeste 8 Sudeste 0 916.9 -1 54
2020-03-13 01:00:00 11.8 5 Sudeste 10 Sudeste 0 917.3 -0.4 53
2020-03-13 00:00:00 12.4 7 Sudeste 13 Sur 0 917.7 0.1 52
2020-03-12 23:00:00 13 6 Sudeste 10 Sur 0 917.9 0.5 49
2020-03-12 22:00:00 13.7 9 Sudeste 14 Sudeste 0 917.7 0.4 45
2020-03-12 21:00:00 14.8 8 Sur 18 Sur 0 917.6 0.4 39
2020-03-12 20:00:00 17 9 Sur 17 Sur 0 917.4 0.3 35
2020-03-12 19:00:00 18.8 10 Sudeste 22 Sur 0 917.3 -0.2 32
2020-03-12 18:00:00 21.2 15 Sur 23 Sur 0 917.2 -1.1 30
2020-03-12 17:00:00 22.5 17 Sur 26 Sudoeste 0 917.1 -2.1 29
2020-03-12 16:00:00 23.3 15 Sur 25 Sur 0 917.5 -2.6 29
2020-03-12 15:00:00 24.1 16 Sudoeste 27 Sudoeste 0 918.3 -2.3 28
2020-03-12 14:00:00 23.6 18 Sudoeste 27 Sudoeste 0 919.2 -1.7 29
2020-03-12 13:00:00 23.5 14 Sur 23 Sur 0 920.1 -0.8 31
2020-03-12 12:00:00 22.6 12 Sur 18 Sudoeste 0 920.6 -0.1 35
2020-03-12 11:00:00 21.1 7 Sudeste 12 Sudeste 0 920.9 0.6 41
2020-03-12 10:00:00 18.1 4 Sudeste 10 Sudeste 0 920.9 0.7 48
2020-03-12 09:00:00 13.8 0 Calma 13 Sudeste 0 920.7 0.5 58
2020-03-12 08:00:00 10.7 6 Este 10 Este 0 920.3 0 60
2020-03-12 07:00:00 11 8 Sudeste 9 Sudeste 0 920.2 -0.6 58
2020-03-12 06:00:00 11.3 4 Sudeste 10 Sudeste 0 920.2 -1.1 57
2020-03-12 05:00:00 11.3 4 Este 12 Sudeste 0 920.3 -1.8 56
2020-03-12 04:00:00 11.8 8 Sudeste 14 Este 0 920.8 -1.4 55
2020-03-12 03:00:00 11.5 9 Este 13 Este 0 921.3 -1.1 55
2020-03-12 02:00:00 12.4 7 Sudeste 11 Sudeste 0 922.1 -0.4 53
2020-03-12 01:00:00 13.3 5 Sudeste 9 Sudeste 0 922.2 -0.3 50
2020-03-12 00:00:00 13.6 6 Sudeste 10 Sudeste 0 922.4 0.3 48
2020-03-11 23:00:00 14.3 5 Sudeste 14 Este 0 922.5 0.4 45
2020-03-11 22:00:00 14.2 12 Sudeste 23 Sudeste 0 922.5 0.6 41
2020-03-11 21:00:00 17.4 6 Norte 9 Norte 0 922.1 0.4 35
2020-03-11 20:00:00 18.2 4 Norte 6 Norte 0 922.1 0.3 35
2020-03-11 19:00:00 20.6 2 Noroeste 10 Oeste 0 921.9 -0.2 32
2020-03-11 18:00:00 23.6 6 Oeste 15 Noroeste 0 921.7 -0.6 29
2020-03-11 17:00:00 23.8 10 Noroeste 19 Noroeste 0 921.8 -1.3 28
2020-03-11 16:00:00 23.3 9 Norte 19 Norte 0 922.1 -2 28
2020-03-11 15:00:00 22.6 9 Norte 19 Oeste 0 922.3 -2.2 29
2020-03-11 14:00:00 23.6 7 Oeste 14 Noroeste 0 923.1 -1.5 32
2020-03-11 13:00:00 20.8 9 Noroeste 15 Norte 0 924.1 -0.5 36
2020-03-11 12:00:00 19 6 Noroeste 15 Sudoeste 0 924.5 0.5 39
2020-03-11 11:00:00 17.9 6 Noroeste 17 Noroeste 0 924.6 1.2 44
2020-03-11 10:00:00 15.3 9 Norte 20 Norte 0 924.6 1.7 49
2020-03-11 09:00:00 12.8 0 Calma 7 Norte 0 924 1.3 54
2020-03-11 08:00:00 9.1 5 Norte 19 Norte 0 923.4 0.3 59
2020-03-11 07:00:00 9.8 18 Norte 24 Norte 0 922.9 -0.1 56
2020-03-11 06:00:00 10.1 18 Norte 23 Norte 0 922.7 -1.2 53
2020-03-11 05:00:00 10.5 14 Norte 19 Norte 0 923.1 -0.7 51
2020-03-11 04:00:00 11.1 16 Norte 20 Norte 0 923 -1.7 50
2020-03-11 03:00:00 10.9 14 Norte 22 Noroeste 0 923.9 -0.8 49
2020-03-11 02:00:00 11.2 14 Norte 18 Norte 0 923.8 -1.3 49
2020-03-11 01:00:00 11 9 Norte 19 Norte 0 924.7 0.1 47
2020-03-11 00:00:00 12 12 Norte 23 Noroeste 0 924.7 0.1 44
2020-03-10 23:00:00 13.3 14 Noroeste 26 Noroeste 0 925.1 0.8 41
2020-03-10 22:00:00 14.4 15 Noroeste 23 Noroeste 0 924.6 0.8 39
2020-03-10 21:00:00 15 14 Noroeste 21 Noroeste 0 924.6 0.6 39
2020-03-10 20:00:00 15.6 13 Noroeste 24 Noroeste 0 924.3 0.3 38
2020-03-10 19:00:00 16.4 17 Noroeste 26 Noroeste 0 923.8 -0.5 36
2020-03-10 18:00:00 18.7 14 Noroeste 27 Noroeste 0 924 -0.7 33
2020-03-10 17:00:00 18.3 15 Noroeste 27 Noroeste 0 924 -1.4 34
2020-03-10 16:00:00 17.2 20 Noroeste 29 Noroeste 0 924.3 -1.2 35
2020-03-10 15:00:00 16.3 14 Noroeste 28 Norte 0 924.7 -- 36
2020-03-10 14:00:00 15.4 13 Noroeste 32 Norte 0 925.4 -- 38
2020-03-10 13:00:00 14 19 Noroeste -- -- -- 925.5 -- 39
2020-03-10 12:00:00 -- -- -- -- -- -- -- -- --
2020-03-10 11:00:00 -- -- -- -- -- -- -- -- --
2020-03-10 10:00:00 -- -- -- -- -- -- -- -- --
2020-03-10 09:00:00 -- -- -- -- -- -- -- -- --
2020-03-10 08:00:00 -- -- -- -- -- -- -- -- --
2020-03-10 07:00:00 -- -- -- -- -- -- -- -- --
2020-03-10 06:00:00 -- -- -- -- -- -- -- -- --
2020-03-10 05:00:00 -- -- -- -- -- -- -- -- --
2020-03-10 04:00:00 -- -- -- -- -- -- -- -- --
2020-03-10 03:00:00 -- -- -- -- -- -- -- -- --
2020-03-10 02:00:00 -- -- -- -- -- -- -- -- --
2020-03-10 01:00:00 -- -- -- -- -- -- -- -- --
2020-03-10 00:00:00 -- -- -- -- -- -- -- -- --
2020-03-09 23:00:00 -- -- -- -- -- -- -- -- --
2020-03-09 22:00:00 -- -- -- -- -- -- -- -- --
2020-03-09 21:00:00 -- -- -- -- -- -- -- -- --
2020-03-09 20:00:00 -- -- -- -- -- -- -- -- --
2020-03-09 19:00:00 -- -- -- -- -- -- -- -- --
2020-03-09 18:00:00 -- -- -- -- -- -- -- -- --
2020-03-09 17:00:00 -- -- -- -- -- -- -- -- --
2020-03-09 16:00:00 -- -- -- -- -- -- -- -- --
2020-03-09 15:00:00 -- -- -- -- -- -- -- -- --
2020-03-09 14:00:00 -- -- -- -- -- -- -- -- --
2020-03-09 13:00:00 -- -- -- -- -- -- -- -- --
2020-03-09 12:00:00 -- -- -- -- -- -- -- -- --
2020-03-09 11:00:00 -- -- -- -- -- -- -- -- --
2020-03-09 10:00:00 -- -- -- -- -- -- -- -- --
2020-03-09 09:00:00 -- -- -- -- -- -- -- -- --
2020-03-09 08:00:00 -- -- -- -- -- -- -- -- --
2020-03-09 07:00:00 -- -- -- -- -- -- -- -- --
2020-03-09 06:00:00 -- -- -- -- -- -- -- -- --
2020-03-09 05:00:00 -- -- -- -- -- -- -- -- --
2020-03-09 04:00:00 -- -- -- -- -- -- -- -- --
2020-03-09 03:00:00 -- -- -- -- -- -- -- -- --
2020-03-09 02:00:00 -- -- -- -- -- -- -- -- --
2020-03-09 01:00:00 -- -- -- -- -- -- -- -- --
2020-03-09 00:00:00 -- -- -- -- -- -- -- -- --
2020-03-08 23:00:00 -- -- -- -- -- -- -- -- --
2020-03-08 22:00:00 -- -- -- -- -- -- -- -- --
2020-03-08 21:00:00 -- -- -- -- -- -- -- -- --
2020-03-08 20:00:00 -- -- -- -- -- -- -- -- --
2020-03-08 19:00:00 -- -- -- -- -- -- -- -- --
2020-03-08 18:00:00 -- -- -- -- -- -- -- -- --
2020-03-08 17:00:00 -- -- -- -- -- -- -- -- --
2020-03-08 16:00:00 -- -- -- -- -- -- -- -- --
2020-03-08 15:00:00 -- -- -- -- -- -- -- -- --
2020-03-08 14:00:00 -- -- -- -- -- -- -- -- --
2020-03-08 13:00:00 -- -- -- -- -- -- -- -- --
2020-03-08 12:00:00 -- -- -- -- -- -- -- -- --
2020-03-08 11:00:00 -- -- -- -- -- -- -- -- --
2020-03-08 10:00:00 -- -- -- -- -- -- -- -- --
2020-03-08 09:00:00 -- -- -- -- -- -- -- -- --
2020-03-08 08:00:00 -- -- -- -- -- -- -- -- --
2020-03-08 07:00:00 -- -- -- -- -- -- -- -- --
2020-03-08 06:00:00 -- -- -- -- -- -- -- -- --
2020-03-08 05:00:00 -- -- -- -- -- -- -- -- --
2020-03-08 04:00:00 -- -- -- -- -- -- -- -- --
2020-03-08 03:00:00 -- -- -- -- -- -- -- -- --
2020-03-08 02:00:00 -- -- -- -- -- -- -- -- --
2020-03-08 01:00:00 -- -- -- -- -- -- -- -- --
2020-03-08 00:00:00 -- -- -- -- -- -- -- -- --
2020-03-07 23:00:00 -- -- -- -- -- -- -- -- --
2020-03-07 22:00:00 -- -- -- -- -- -- -- -- --
2020-03-07 21:00:00 -- -- -- -- -- -- -- -- --
2020-03-07 20:00:00 -- -- -- -- -- -- -- -- --
2020-03-07 19:00:00 -- -- -- -- -- -- -- -- --
2020-03-07 18:00:00 -- -- -- -- -- -- -- -- --
2020-03-07 17:00:00 -- -- -- -- -- -- -- -- --
2020-03-07 16:00:00 -- -- -- -- -- -- -- -- --
2020-03-07 15:00:00 -- -- -- -- -- -- -- -- --
2020-03-07 14:00:00 -- -- -- -- -- -- -- -- --
2020-03-07 13:00:00 -- -- -- -- -- -- -- -- --
2020-03-07 12:00:00 -- -- -- -- -- -- -- -- --
2020-03-07 11:00:00 -- -- -- -- -- -- -- -- --
2020-03-07 10:00:00 -- -- -- -- -- -- -- -- --
2020-03-07 09:00:00 -- -- -- -- -- -- -- -- --
2020-03-07 08:00:00 -- -- -- -- -- -- -- -- --
2020-03-07 07:00:00 -- -- -- -- -- -- -- -- --
2020-03-07 06:00:00 -- -- -- -- -- -- -- -- --
2020-03-07 05:00:00 -- -- -- -- -- -- -- -- --
2020-03-07 04:00:00 -- -- -- -- -- -- -- -- --
2020-03-07 03:00:00 -- -- -- -- -- -- -- -- --
2020-03-07 02:00:00 -- -- -- -- -- -- -- -- --
2020-03-07 01:00:00 -- -- -- -- -- -- -- -- --
2020-03-07 00:00:00 -- -- -- -- -- -- -- -- --
2020-03-06 23:00:00 -- -- -- -- -- -- -- -- --
2020-03-06 22:00:00 -- -- -- -- -- -- -- -- --
2020-03-06 21:00:00 -- -- -- -- -- -- -- -- --
2020-03-06 20:00:00 -- -- -- -- -- -- -- -- --
2020-03-06 19:00:00 -- -- -- -- -- -- -- -- --
2020-03-06 18:00:00 -- -- -- -- -- -- -- -- --
2020-03-06 17:00:00 -- -- -- -- -- -- -- -- --
2020-03-06 16:00:00 -- -- -- -- -- -- -- -- --
2020-03-06 15:00:00 -- -- -- -- -- -- -- -- --
2020-03-06 14:00:00 -- -- -- -- -- -- -- -- --
2020-03-06 13:00:00 -- -- -- -- -- -- -- -- --
2020-03-06 12:00:00 -- -- -- -- -- -- -- -- --
2020-03-06 11:00:00 -- -- -- -- -- -- -- -- --
2020-03-06 10:00:00 -- -- -- -- -- -- -- -- --
2020-03-06 09:00:00 -- -- -- -- -- -- -- -- --
2020-03-06 08:00:00 -- -- -- -- -- -- -- -- --
2020-03-06 07:00:00 -- -- -- -- -- -- -- -- --
2020-03-06 06:00:00 -- -- -- -- -- -- -- -- --
2020-03-06 05:00:00 -- -- -- -- -- -- -- -- --
2020-03-06 04:00:00 -- -- -- -- -- -- -- -- --
2020-03-06 03:00:00 -- -- -- -- -- -- -- -- --
2020-03-06 02:00:00 -- -- -- -- -- -- -- -- --
2020-03-06 01:00:00 -- -- -- -- -- -- -- -- --
2020-03-06 00:00:00 -- -- -- -- -- -- -- -- --
2020-03-05 23:00:00 -- -- -- -- -- -- -- -- --
2020-03-05 22:00:00 -- -- -- -- -- -- -- -- --
2020-03-05 21:00:00 -- -- -- -- -- -- -- -- --
2020-03-05 20:00:00 -- -- -- -- -- -- -- -- --
2020-03-05 19:00:00 -- -- -- -- -- -- -- -- --
2020-03-05 18:00:00 -- -- -- -- -- -- -- -- --
2020-03-05 17:00:00 -- -- -- -- -- -- -- -- --
2020-03-05 16:00:00 -- -- -- -- -- -- -- -- --
2020-03-05 15:00:00 -- -- -- -- -- -- -- -- --
2020-03-05 14:00:00 -- -- -- -- -- -- -- -- --
2020-03-05 13:00:00 -- -- -- -- -- -- -- -- --
2020-03-05 12:00:00 -- -- -- -- -- -- -- -- --
2020-03-05 11:00:00 -- -- -- -- -- -- -- -- --
2020-03-05 10:00:00 -- -- -- -- -- -- -- -- --
2020-03-05 09:00:00 -- -- -- -- -- -- -- -- --
2020-03-05 08:00:00 7.1 24 Noroeste 39 Noroeste 0 912.9 -1.2 82
2020-03-05 07:00:00 7.2 22 Noroeste 45 Noroeste 0 913.1 -1.8 79
2020-03-05 06:00:00 7.7 31 Noroeste 48 Noroeste 0 913.6 -2.3 75
2020-03-05 05:00:00 8 27 Noroeste 48 Noroeste 0 914.1 -2.7 68
2020-03-05 04:00:00 7.7 23 Noroeste 39 Oeste 0 914.9 -2.3 68
2020-03-05 03:00:00 7.7 18 Noroeste 40 Noroeste 0 915.9 -1.7 67
2020-03-05 02:00:00 8.4 25 Noroeste 37 Noroeste 0 916.8 -1.5 66
2020-03-05 01:00:00 8.3 21 Noroeste 37 Noroeste 0 917.2 -1.2 66
2020-03-05 00:00:00 8 16 Noroeste 33 Noroeste 0 917.6 -1 68
2020-03-04 23:00:00 8.6 22 Noroeste 31 Noroeste 0 918.3 -0.3 63
2020-03-04 22:00:00 8.8 18 Noroeste 29 Oeste 0 918.4 -0.5 62
2020-03-04 21:00:00 9.1 18 Noroeste 28 Oeste 0 918.6 -0.3 60
2020-03-04 20:00:00 9.7 17 Noroeste 30 Noroeste 0 918.6 -0.3 59
2020-03-04 19:00:00 10.6 22 Noroeste 39 Noroeste 0 918.9 -0.1 55
2020-03-04 18:00:00 11.2 21 Oeste 39 Oeste 0 918.9 -0.1 55
2020-03-04 17:00:00 11.4 22 Noroeste 39 Noroeste 0 918.9 -0.9 55
2020-03-04 16:00:00 11.7 20 Noroeste 45 Noroeste 0 919 -1.5 55
2020-03-04 15:00:00 12.3 28 Noroeste 45 Oeste 0 919 -1.5 52
2020-03-04 14:00:00 11.8 30 Noroeste 48 Noroeste 0 919.8 -0.3 57
2020-03-04 13:00:00 11.1 31 Noroeste 53 Noroeste 0 920.5 0.6 59
2020-03-04 12:00:00 11.6 33 Noroeste 53 Noroeste 0 920.5 1.2 63
2020-03-04 11:00:00 10.5 38 Noroeste 53 Noroeste 0 920.1 0.9 74
2020-03-04 10:00:00 9.9 29 Noroeste 52 Noroeste 0 919.9 1 80
2020-03-04 09:00:00 9.3 33 Noroeste 47 Oeste 0 919.3 0.5 86
2020-03-04 08:00:00 9.1 23 Noroeste 47 Noroeste 0 919.2 0.8 86
2020-03-04 07:00:00 9.3 30 Noroeste 46 Noroeste 0 918.9 0.5 86
2020-03-04 06:00:00 9.2 25 Noroeste 42 Noroeste 0 918.8 0.4 87
2020-03-04 05:00:00 8.9 27 Noroeste 45 Noroeste 0 918.4 -0.2 88
2020-03-04 04:00:00 8.8 32 Noroeste 49 Noroeste 0 918.4 0 88
2020-03-04 03:00:00 8.8 27 Noroeste 47 Noroeste 0 918.4 -0.1 88
2020-03-04 02:00:00 8.7 26 Noroeste 47 Noroeste 0 918.6 0.1 87
2020-03-04 01:00:00 8.4 24 Noroeste 42 Noroeste 0 918.4 0 87
2020-03-04 00:00:00 8.5 30 Noroeste 54 Noroeste 0 918.5 0.4 85
2020-03-03 23:00:00 8.7 35 Noroeste 52 Noroeste 0 918.5 0.8 82
2020-03-03 22:00:00 9 27 Noroeste 45 Noroeste 0 918.4 1.4 80
2020-03-03 21:00:00 9.3 23 Noroeste 45 Noroeste 0 918.1 1.9 78
2020-03-03 20:00:00 9.4 31 Noroeste 45 Noroeste 0 917.7 2.3 76
2020-03-03 19:00:00 9.6 25 Noroeste 63 Noroeste 0 917 2 71
2020-03-03 18:00:00 10.2 37 Noroeste 72 Noroeste 0 916.2 0.9 67
2020-03-03 17:00:00 10.7 51 Noroeste 80 Oeste 0 915.4 0 62
2020-03-03 16:00:00 10.8 51 Noroeste 81 Noroeste 0 915 -1.5 58
2020-03-03 15:00:00 10.9 48 Noroeste 75 Noroeste 0 915.3 -1.2 56
2020-03-03 14:00:00 9.8 45 Noroeste 68 Noroeste 0 915.4 -1.2 58
2020-03-03 13:00:00 9.1 30 Noroeste 61 Noroeste 0 916.5 0.1 57
2020-03-03 12:00:00 8.2 35 Noroeste 54 Noroeste 0 916.5 0.9 60
2020-03-03 11:00:00 6.8 33 Noroeste 107 Noroeste 0 916.6 1.8 68
2020-03-03 10:00:00 4.5 22 Noroeste 47 Noroeste 0 916.4 1.3 76
2020-03-03 09:00:00 3.9 30 Noroeste 50 Noroeste 0 915.6 1.4 78
2020-03-03 08:00:00 2.7 23 Noroeste 42 Noroeste 0 914.8 0 83
2020-03-03 07:00:00 2.7 23 Noroeste 44 Noroeste 0 915.1 0.4 81
2020-03-03 06:00:00 2.4 28 Noroeste 49 Noroeste 0 914.2 -1.2 79
2020-03-03 05:00:00 2.3 29 Noroeste 50 Noroeste 0 914.8 -0.6 77
2020-03-03 04:00:00 2.3 27 Noroeste 44 Noroeste 0 914.7 -1.5 80
2020-03-03 03:00:00 2.6 24 Noroeste 45 Noroeste 0 915.4 -0.4 80
2020-03-03 02:00:00 2.3 21 Noroeste 43 Noroeste 0 915.4 -0.3 77
2020-03-03 01:00:00 2.6 23 Noroeste 36 Noroeste 0 916.2 1.3 66
2020-03-03 00:00:00 2.5 19 Noroeste 33 Noroeste 0 915.8 1.9 63
2020-03-02 23:00:00 2.7 13 Noroeste 30 Noroeste 0 915.7 2.8 61
2020-03-02 22:00:00 3.6 18 Noroeste 36 Norte 0 914.9 3.7 58
2020-03-02 21:00:00 4 24 Noroeste 47 Noroeste 0 913.9 4.4 55
2020-03-02 20:00:00 4.4 29 Noroeste 51 Noroeste 0 912.9 4.6 58
2020-03-02 19:00:00 4.9 29 Norte 70 Norte 0 911.2 3.3 68
2020-03-02 18:00:00 4.9 41 Norte 70 Norte 0.4 909.5 2 70
2020-03-02 17:00:00 7.4 27 Noroeste 75 Noroeste 0.4 908.3 0.4 78
2020-03-02 16:00:00 10.3 41 Noroeste 77 Oeste 0 907.9 -0.1 42
2020-03-02 15:00:00 10.5 44 Noroeste 77 Noroeste 0 907.5 -0.4 41
2020-03-02 14:00:00 11.1 44 Oeste 81 Noroeste 0 907.9 0.9 42
2020-03-02 13:00:00 12 51 Noroeste 88 Noroeste 0 908 1.4 38
2020-03-02 12:00:00 9.9 54 Noroeste 81 Noroeste 0 907.9 2.1 61
2020-03-02 11:00:00 9.2 40 Noroeste 72 Oeste 0.5 907 1.8 90
2020-03-02 10:00:00 10.5 42 Oeste 76 Oeste 0 906.6 1.2 70
2020-03-02 09:00:00 10.4 44 Oeste 78 Oeste 0 905.8 -0.3 69
2020-03-02 08:00:00 9.7 40 Oeste 71 Oeste 0 905.2 -1.9 68
2020-03-02 07:00:00 9.7 36 Oeste 82 Oeste 0 905.4 -2.6 67
2020-03-02 06:00:00 9.3 40 Oeste 68 Oeste 0 906.1 -2.7 72
2020-03-02 05:00:00 9.1 30 Oeste 62 Oeste 0 907.1 -2.3 69
2020-03-02 04:00:00 9.5 36 Oeste 62 Oeste 0 908 -2.6 71
2020-03-02 03:00:00 10.1 38 Oeste 64 Oeste 0 908.8 -2.2 73
2020-03-02 02:00:00 9.6 23 Oeste 40 Oeste 0 909.4 -2.3 76
2020-03-02 01:00:00 7.6 8 Oeste 24 Oeste 0 910.6 -2.2 74
2020-03-02 00:00:00 7.8 14 Oeste 25 Oeste 0 911 -2.1 76
2020-03-01 23:00:00 6.9 13 Oeste 22 Oeste 0 911.7 -2 76
2020-03-01 22:00:00 7.1 4 Sudoeste 24 Oeste 0 912.8 -1.1 72
2020-03-01 21:00:00 8.4 18 Oeste 39 Oeste 0 913.1 -0.7 68
2020-03-01 20:00:00 8.8 21 Oeste 42 Oeste 0 913.7 -0.1 65
2020-03-01 19:00:00 9.8 27 Noroeste 47 Noroeste 0 913.9 -0.2 61
2020-03-01 18:00:00 11.4 24 Oeste 55 Oeste 0 913.8 -0.4 56
2020-03-01 17:00:00 11.6 35 Oeste 55 Oeste 0 913.8 -0.9 57
2020-03-01 16:00:00 12.5 33 Oeste 50 Oeste 0 914.1 -1.5 56
2020-03-01 15:00:00 11.7 31 Noroeste 57 Noroeste 0 914.2 -1.5 57
2020-03-01 14:00:00 11.5 32 Oeste 59 Oeste 0 914.7 -0.6 58
2020-03-01 13:00:00 10.4 32 Oeste 58 Noroeste 0 915.6 1.2 64
2020-03-01 12:00:00 9 31 Noroeste 51 Noroeste 0 915.7 1.6 68
2020-03-01 11:00:00 8.8 30 Noroeste 48 Noroeste 0 915.3 1.8 71
2020-03-01 10:00:00 7.8 28 Noroeste 48 Noroeste 0 914.4 1 75
2020-03-01 09:00:00 7.2 24 Noroeste 44 Noroeste 0 914.1 1 79
2020-03-01 08:00:00 7 25 Noroeste 37 Noroeste 0 913.5 0 80
2020-03-01 07:00:00 6.9 22 Noroeste 40 Noroeste 0 913.4 0.2 78
2020-03-01 06:00:00 7.1 27 Noroeste 45 Noroeste 0 913.1 0 80
2020-03-01 05:00:00 7.3 26 Noroeste 53 Noroeste 0 913.5 0.1 81
2020-03-01 04:00:00 8.1 26 Noroeste 56 Oeste 0 913.2 -1 86
2020-03-01 03:00:00 8.5 23 Noroeste 36 Noroeste 0 913.1 -1.2 80
2020-03-01 02:00:00 8.7 19 Oeste 34 Noroeste 0 913.4 -1 80
2020-03-01 01:00:00 8.4 20 Oeste 41 Oeste 0 914.2 -0.3 80
2020-03-01 00:00:00 8.9 20 Oeste 43 Oeste 0 914.3 0.1 81
2020-02-29 23:00:00 9 22 Oeste 37 Oeste 0 914.4 0.5 77
2020-02-29 22:00:00 8.9 20 Noroeste 37 Oeste 0 914.5 0.8 73
2020-02-29 21:00:00 9.8 21 Oeste 39 Noroeste 0 914.2 0.8 65
2020-02-29 20:00:00 10.5 21 Oeste 40 Oeste 0 913.9 0.4 61
2020-02-29 19:00:00 11 23 Oeste 41 Noroeste 0 913.7 -0.1 55
2020-02-29 18:00:00 12.1 24 Oeste 40 Oeste 0 913.4 -0.7 52
2020-02-29 17:00:00 12.9 24 Oeste 41 Oeste 0 913.5 -1.1 49
2020-02-29 16:00:00 13.3 23 Oeste 48 Oeste 0 913.8 -1.3 47
2020-02-29 15:00:00 14.4 29 Oeste 45 Noroeste 0 914.1 -1.3 45
2020-02-29 14:00:00 14 27 Oeste 46 Oeste 0 914.6 -0.6 44
2020-02-29 13:00:00 13.4 26 Oeste 46 Noroeste 0 915.1 0.3 46
2020-02-29 12:00:00 12.3 24 Oeste 43 Noroeste 0 915.4 1.2 49
2020-02-29 11:00:00 11 30 Noroeste 48 Noroeste 0 915.2 1 50
2020-02-29 10:00:00 9.8 30 Oeste 49 Noroeste 0 914.8 0.7 54
2020-02-29 09:00:00 7.4 25 Noroeste 39 Oeste 0 914.2 -0.1 59
2020-02-29 08:00:00 7 19 Noroeste 34 Oeste 0 914.2 0.4 61
2020-02-29 07:00:00 7 20 Oeste 33 Oeste 0 914.1 0.2 62
2020-02-29 06:00:00 7.7 19 Noroeste 29 Noroeste 0 914.3 -0.6 58
2020-02-29 05:00:00 6.4 6 Noroeste 9 Norte 0 913.8 -1.7 60
2020-02-29 04:00:00 5.6 2 Sudeste 11 Sudeste 0 913.9 -2.2 62
2020-02-29 03:00:00 6 5 Sudeste 12 Sudeste 0 914.9 -1.7 60
2020-02-29 02:00:00 6.4 6 Sudeste 14 Sudeste 0 915.5 -1.7 58
2020-02-29 01:00:00 6.6 9 Sudeste 18 Sudeste 0 916.1 -1.4 56
2020-02-29 00:00:00 6.2 13 Sudeste 19 Este 0 916.6 -0.9 55